Saturday, September 22, 2018, 10:48 PM EDT
Back to Local

KCEF, Chicopee Falls / Westover Air Force Base

Location: Chicopee, MA, United States Lat: 42.2
Local Time: 10:48 PM EDT ( 2:48 GMT) Lon: -72.533
Time Zone: US/Eastern Elev: 246 ft

Show me the last for .
Show Coded

Time T Td Feel RH Dir Speed Gust Alt SLP Vis Weather Sky Remarks
2018-09-22 21:56 52 49 - 91 - Calm - 30.21 30.23 10 BKN200 None
2018-09-22 20:56 56 50 - 80 350° 5 - 30.21 30.23 10 BKN200 None
2018-09-22 19:56 57 52 - 82 10° 5 - 30.20 30.22 10 BKN200 6-hr Min Temp (8pm): 57.0°F
6-hr Max Temp (8pm): 70.2°F
2018-09-22 18:56 59 53 - 81 - Calm - 30.17 30.19 10 SCT160 BKN210 None
2018-09-22 17:56 63 49 - 59 10° 7 - 30.16 30.18 10 SCT160 BKN210 None
2018-09-22 16:56 66 48 - 51 20° 7 - 30.14 30.16 10 SCT160 BKN190 None
2018-09-22 15:56 67 48 - 50 40° 8 - 30.13 30.14 10 FEW040 SCT160 BKN190 None
2018-09-22 14:56 69 48 - 47 30° 12 - 30.12 30.14 10 FEW040 SCT180 BKN200 None
2018-09-22 12:56 70 48 - 45 360° 12 - 30.12 30.14 10 FEW040 SCT150 BKN200 None
2018-09-22 11:56 66 49 - 54 360° 8 - 30.10 30.11 10 FEW040 SCT150 BKN180 None
2018-09-22 10:56 67 48 - 50 360° 17 30 30.09 30.11 10 FEW040 SCT140 BKN180 Peak wind: 29 mph (26 kts) from 340° at 51 min
2018-09-22 09:56 63 50 - 61 340° 10 - 30.08 30.09 10 FEW038 SCT150 BKN200 None
2018-09-22 08:56 63 50 - 62 320° 12 - 30.05 30.06 10 FEW038 FEW150 BKN230 None
2018-09-22 07:56 64 50 - 61 300° 16 22 30.03 30.04 10 FEW035 BKN150 BKN230 Peak wind: 31 mph (27 kts) from 310° at 07 min
6-hr Precip Total (8am): 0.16"
24-hr Precip Total (8am): 0.29"
6-hr Min Temp (8am): 63.0°F
6-hr Max Temp (8am): 68.0°F
2018-09-22 03:36 68 66 - 93 210° 14 - 29.87 29.88 10 FEW010 SCT019 BKN075 None
2018-09-22 03:21 68 66 - 93 210° 8 - 29.87 29.88 10 SCT013 BKN019 OVC070 None
2018-09-22 03:04 68 66 - 93 200° 12 - 29.87 29.88 10 -RA FEW008 SCT013 BKN019 BKN026 OVC055 None
2018-09-22 03:02 68 66 - 93 210° 9 - 29.87 29.88 10 FEW013 BKN019 BKN026 OVC055 None
2018-09-22 02:56 68 65 - 92 210° 8 - 29.87 29.88 10 -RA SCT018 BKN031 BKN055 1-hr Precip Total: 0.15"
2018-09-21 22:56 69 62 - 80 190° 13 - 29.94 29.96 10 OVC019 None

Support USWX by starting your Amazon purchase here.